WBGB

Bintulu Airport

Bintulu, Malaysia
TAF WBGB 221100Z 2212/2312 VRB03KT 9999 SCT016 TEMPO 2212/2216 4000 RA FEW004
Issued Valid From Valid To
Jan-22 @ 11:00 UTC
(6 hours ago)
Jan-22 @ 12:00 UTC
(5 hours ago)
Jan-23 @ 12:00 UTC
(in 19 hours)
Jan-22 @ 12:00 to Jan-23 @ 12:00
TAF WBGB 221100Z 2212/2312 VRB03KT 9999 SCT016
Wind Visibility Clouds
Variable at 3 knots 10,000+ meters
  • Scattered at 1,600' AGL
Expired Click to View Jan-22 @ 12:00 to Jan-22 @ 16:00
TEMPO 2212/2216 4000 RA FEW004
Visibility Clouds Conditions
4,007 meters
  • Few at 400' AGL
  • Rain
TAF WBGB 221100Z 2212/2312 VRB03KT 9999 SCT016 TEMPO 2212/2216 4000 RA FEW004
Issued Jan-22 @ 11:00 UTC
(6 hours ago)
Valid From Jan-22 @ 12:00 UTC
(5 hours ago)
Valid To Jan-23 @ 12:00 UTC
(in 19 hours)
Jan-22 @ 12:00 - Jan-23 @ 12:00
Wind Visibility
Variable at 3 knots 10,000+ meters
Clouds
  • Scattered at 1,600' AGL
Jan-22 @ 12:00 - Jan-22 @ 16:00
Clouds
  • Few at 400' AGL
Conditions
  • Rain